sensor_id;sensor_type;location;lat;lon;timestamp;P1;durP1;ratioP1;P2;durP2;ratioP2
50789;SDS011;37287;47.554;7.844;2023-12-07T00:00:12;8.18;;;5.60;;
50789;SDS011;37287;47.554;7.844;2023-12-07T00:02:39;9.02;;;6.00;;
50789;SDS011;37287;47.554;7.844;2023-12-07T00:05:06;8.63;;;5.47;;
50789;SDS011;37287;47.554;7.844;2023-12-07T00:07:33;7.75;;;5.38;;
50789;SDS011;37287;47.554;7.844;2023-12-07T00:10:00;8.65;;;5.93;;
50789;SDS011;37287;47.554;7.844;2023-12-07T00:12:27;8.20;;;5.53;;
50789;SDS011;37287;47.554;7.844;2023-12-07T00:14:54;7.45;;;5.20;;
50789;SDS011;37287;47.554;7.844;2023-12-07T00:17:20;6.70;;;4.97;;
50789;SDS011;37287;47.554;7.844;2023-12-07T00:19:49;9.73;;;6.78;;
50789;SDS011;37287;47.554;7.844;2023-12-07T00:22:16;10.80;;;6.97;;
50789;SDS011;37287;47.554;7.844;2023-12-07T00:24:43;9.00;;;5.75;;
50789;SDS011;37287;47.554;7.844;2023-12-07T00:27:10;8.55;;;6.30;;
50789;SDS011;37287;47.554;7.844;2023-12-07T00:29:40;8.85;;;6.50;;
50789;SDS011;37287;47.554;7.844;2023-12-07T00:32:06;10.75;;;6.25;;
50789;SDS011;37287;47.554;7.844;2023-12-07T00:34:33;8.95;;;6.13;;
50789;SDS011;37287;47.554;7.844;2023-12-07T00:37:00;10.02;;;6.47;;
50789;SDS011;37287;47.554;7.844;2023-12-07T00:39:27;10.82;;;7.75;;
50789;SDS011;37287;47.554;7.844;2023-12-07T00:41:53;10.15;;;6.32;;
50789;SDS011;37287;47.554;7.844;2023-12-07T00:44:20;14.65;;;7.28;;
50789;SDS011;37287;47.554;7.844;2023-12-07T00:46:47;11.20;;;7.43;;
50789;SDS011;37287;47.554;7.844;2023-12-07T00:49:14;9.93;;;7.05;;
50789;SDS011;37287;47.554;7.844;2023-12-07T00:51:41;9.32;;;6.38;;
50789;SDS011;37287;47.554;7.844;2023-12-07T00:54:08;9.05;;;6.50;;
50789;SDS011;37287;47.554;7.844;2023-12-07T00:56:34;9.15;;;6.07;;
50789;SDS011;37287;47.554;7.844;2023-12-07T00:59:03;7.88;;;5.65;;
50789;SDS011;37287;47.554;7.844;2023-12-07T01:01:30;9.30;;;5.95;;
50789;SDS011;37287;47.554;7.844;2023-12-07T01:03:57;7.55;;;5.43;;
50789;SDS011;37287;47.554;7.844;2023-12-07T01:06:24;7.50;;;4.97;;
50789;SDS011;37287;47.554;7.844;2023-12-07T01:08:50;7.20;;;5.55;;
50789;SDS011;37287;47.554;7.844;2023-12-07T01:11:17;7.13;;;5.13;;
50789;SDS011;37287;47.554;7.844;2023-12-07T01:13:44;10.73;;;5.30;;
50789;SDS011;37287;47.554;7.844;2023-12-07T01:16:10;6.68;;;5.07;;
50789;SDS011;37287;47.554;7.844;2023-12-07T01:18:37;8.45;;;5.32;;
50789;SDS011;37287;47.554;7.844;2023-12-07T01:21:04;13.40;;;6.57;;
50789;SDS011;37287;47.554;7.844;2023-12-07T01:23:31;8.98;;;6.03;;
50789;SDS011;37287;47.554;7.844;2023-12-07T01:25:58;11.40;;;6.40;;
50789;SDS011;37287;47.554;7.844;2023-12-07T01:28:29;8.95;;;6.40;;
50789;SDS011;37287;47.554;7.844;2023-12-07T01:30:55;11.60;;;6.45;;
50789;SDS011;37287;47.554;7.844;2023-12-07T01:33:22;9.60;;;6.13;;
50789;SDS011;37287;47.554;7.844;2023-12-07T01:35:49;11.25;;;6.47;;
50789;SDS011;37287;47.554;7.844;2023-12-07T01:38:16;28.83;;;8.55;;
50789;SDS011;37287;47.554;7.844;2023-12-07T01:40:42;33.05;;;8.40;;
50789;SDS011;37287;47.554;7.844;2023-12-07T01:43:11;69.07;;;10.02;;
50789;SDS011;37287;47.554;7.844;2023-12-07T01:45:39;59.60;;;9.20;;
50789;SDS011;37287;47.554;7.844;2023-12-07T01:48:05;124.88;;;12.63;;
50789;SDS011;37287;47.554;7.844;2023-12-07T01:50:32;60.78;;;8.82;;
50789;SDS011;37287;47.554;7.844;2023-12-07T01:53:01;93.75;;;9.45;;
50789;SDS011;37287;47.554;7.844;2023-12-07T01:55:32;46.05;;;9.15;;
50789;SDS011;37287;47.554;7.844;2023-12-07T01:58:00;26.17;;;8.25;;
50789;SDS011;37287;47.554;7.844;2023-12-07T02:00:27;64.53;;;8.85;;
50789;SDS011;37287;47.554;7.844;2023-12-07T02:02:54;89.18;;;9.27;;
50789;SDS011;37287;47.554;7.844;2023-12-07T02:05:21;60.90;;;9.23;;
50789;SDS011;37287;47.554;7.844;2023-12-07T02:07:48;101.60;;;10.73;;
50789;SDS011;37287;47.554;7.844;2023-12-07T02:10:15;244.90;;;16.52;;
50789;SDS011;37287;47.554;7.844;2023-12-07T02:12:42;108.07;;;12.00;;
50789;SDS011;37287;47.554;7.844;2023-12-07T02:15:09;245.82;;;18.48;;
50789;SDS011;37287;47.554;7.844;2023-12-07T02:22:55;76.18;;;16.48;;
50789;SDS011;37287;47.554;7.844;2023-12-07T02:26:01;26.27;;;13.55;;
50789;SDS011;37287;47.554;7.844;2023-12-07T02:28:19;34.45;;;18.08;;
50789;SDS011;37287;47.554;7.844;2023-12-07T02:30:47;33.50;;;16.15;;
50789;SDS011;37287;47.554;7.844;2023-12-07T02:33:14;26.50;;;13.82;;
50789;SDS011;37287;47.554;7.844;2023-12-07T02:35:42;36.55;;;15.15;;
50789;SDS011;37287;47.554;7.844;2023-12-07T02:38:09;27.13;;;14.15;;
50789;SDS011;37287;47.554;7.844;2023-12-07T02:40:36;27.73;;;14.95;;
50789;SDS011;37287;47.554;7.844;2023-12-07T02:43:05;24.95;;;13.13;;
50789;SDS011;37287;47.554;7.844;2023-12-07T02:45:32;23.55;;;11.38;;
50789;SDS011;37287;47.554;7.844;2023-12-07T02:47:59;25.48;;;12.35;;
50789;SDS011;37287;47.554;7.844;2023-12-07T02:50:26;32.20;;;15.95;;
50789;SDS011;37287;47.554;7.844;2023-12-07T02:52:53;31.48;;;16.10;;
50789;SDS011;37287;47.554;7.844;2023-12-07T02:55:22;31.75;;;15.27;;
50789;SDS011;37287;47.554;7.844;2023-12-07T02:57:49;34.67;;;16.92;;
50789;SDS011;37287;47.554;7.844;2023-12-07T03:00:16;32.35;;;15.23;;
50789;SDS011;37287;47.554;7.844;2023-12-07T03:02:43;29.90;;;13.18;;
50789;SDS011;37287;47.554;7.844;2023-12-07T03:05:09;33.75;;;11.52;;
50789;SDS011;37287;47.554;7.844;2023-12-07T03:07:36;26.85;;;10.25;;
50789;SDS011;37287;47.554;7.844;2023-12-07T03:10:03;28.83;;;9.73;;
50789;SDS011;37287;47.554;7.844;2023-12-07T03:12:30;12.95;;;7.60;;
50789;SDS011;37287;47.554;7.844;2023-12-07T03:14:57;16.80;;;8.77;;
50789;SDS011;37287;47.554;7.844;2023-12-07T03:17:24;26.80;;;13.13;;
50789;SDS011;37287;47.554;7.844;2023-12-07T03:19:51;30.98;;;14.80;;
50789;SDS011;37287;47.554;7.844;2023-12-07T03:22:17;35.00;;;14.43;;
50789;SDS011;37287;47.554;7.844;2023-12-07T03:24:50;33.20;;;14.18;;
50789;SDS011;37287;47.554;7.844;2023-12-07T03:27:17;43.15;;;17.30;;
50789;SDS011;37287;47.554;7.844;2023-12-07T03:29:45;34.20;;;14.55;;
50789;SDS011;37287;47.554;7.844;2023-12-07T03:32:12;36.67;;;15.48;;
50789;SDS011;37287;47.554;7.844;2023-12-07T03:34:39;31.65;;;12.88;;
50789;SDS011;37287;47.554;7.844;2023-12-07T03:37:05;32.15;;;12.85;;
50789;SDS011;37287;47.554;7.844;2023-12-07T03:39:32;32.70;;;13.15;;
50789;SDS011;37287;47.554;7.844;2023-12-07T03:41:59;35.88;;;13.48;;
50789;SDS011;37287;47.554;7.844;2023-12-07T03:44:26;29.88;;;12.70;;
50789;SDS011;37287;47.554;7.844;2023-12-07T03:46:53;36.88;;;14.60;;
50789;SDS011;37287;47.554;7.844;2023-12-07T03:49:20;35.28;;;13.57;;
50789;SDS011;37287;47.554;7.844;2023-12-07T03:51:47;30.77;;;11.48;;
50789;SDS011;37287;47.554;7.844;2023-12-07T03:54:14;31.55;;;12.35;;
50789;SDS011;37287;47.554;7.844;2023-12-07T03:56:41;31.73;;;12.80;;
50789;SDS011;37287;47.554;7.844;2023-12-07T03:59:08;29.92;;;14.25;;
50789;SDS011;37287;47.554;7.844;2023-12-07T04:01:35;34.85;;;13.10;;
50789;SDS011;37287;47.554;7.844;2023-12-07T04:04:02;33.58;;;13.32;;
50789;SDS011;37287;47.554;7.844;2023-12-07T04:06:29;28.98;;;12.55;;
50789;SDS011;37287;47.554;7.844;2023-12-07T04:08:55;23.20;;;10.95;;
50789;SDS011;37287;47.554;7.844;2023-12-07T04:11:22;30.38;;;13.63;;
50789;SDS011;37287;47.554;7.844;2023-12-07T04:13:49;31.83;;;13.65;;
50789;SDS011;37287;47.554;7.844;2023-12-07T04:16:16;32.83;;;12.43;;
50789;SDS011;37287;47.554;7.844;2023-12-07T04:18:43;45.42;;;18.63;;
50789;SDS011;37287;47.554;7.844;2023-12-07T04:21:10;37.75;;;14.63;;
50789;SDS011;37287;47.554;7.844;2023-12-07T04:23:37;41.83;;;16.65;;
50789;SDS011;37287;47.554;7.844;2023-12-07T04:26:03;42.65;;;17.38;;
50789;SDS011;37287;47.554;7.844;2023-12-07T04:28:30;40.05;;;16.48;;
50789;SDS011;37287;47.554;7.844;2023-12-07T04:30:57;51.38;;;20.98;;
50789;SDS011;37287;47.554;7.844;2023-12-07T04:33:24;48.28;;;21.05;;
50789;SDS011;37287;47.554;7.844;2023-12-07T04:35:51;61.83;;;25.77;;
50789;SDS011;37287;47.554;7.844;2023-12-07T04:38:17;61.67;;;23.88;;
50789;SDS011;37287;47.554;7.844;2023-12-07T04:40:44;59.25;;;25.30;;
50789;SDS011;37287;47.554;7.844;2023-12-07T04:43:11;61.72;;;24.40;;
50789;SDS011;37287;47.554;7.844;2023-12-07T04:45:38;59.05;;;25.45;;
50789;SDS011;37287;47.554;7.844;2023-12-07T04:48:04;63.40;;;28.08;;
50789;SDS011;37287;47.554;7.844;2023-12-07T04:50:32;57.75;;;25.58;;
50789;SDS011;37287;47.554;7.844;2023-12-07T04:52:58;58.25;;;24.85;;
50789;SDS011;37287;47.554;7.844;2023-12-07T04:55:25;56.00;;;25.55;;
50789;SDS011;37287;47.554;7.844;2023-12-07T04:57:53;53.28;;;24.52;;
50789;SDS011;37287;47.554;7.844;2023-12-07T05:00:19;46.13;;;20.83;;
50789;SDS011;37287;47.554;7.844;2023-12-07T05:02:48;51.80;;;22.80;;
50789;SDS011;37287;47.554;7.844;2023-12-07T05:05:15;50.65;;;22.65;;
50789;SDS011;37287;47.554;7.844;2023-12-07T05:07:42;53.05;;;22.65;;
50789;SDS011;37287;47.554;7.844;2023-12-07T05:10:09;48.40;;;21.85;;
50789;SDS011;37287;47.554;7.844;2023-12-07T05:12:36;47.65;;;20.63;;
50789;SDS011;37287;47.554;7.844;2023-12-07T05:15:03;50.85;;;23.15;;
50789;SDS011;37287;47.554;7.844;2023-12-07T05:17:32;50.08;;;21.63;;
50789;SDS011;37287;47.554;7.844;2023-12-07T05:19:59;46.75;;;22.48;;
50789;SDS011;37287;47.554;7.844;2023-12-07T05:22:26;45.97;;;22.10;;
50789;SDS011;37287;47.554;7.844;2023-12-07T05:24:54;42.78;;;22.02;;
50789;SDS011;37287;47.554;7.844;2023-12-07T05:27:21;45.72;;;21.98;;
50789;SDS011;37287;47.554;7.844;2023-12-07T05:29:48;42.55;;;19.95;;
50789;SDS011;37287;47.554;7.844;2023-12-07T05:32:15;46.42;;;22.92;;
50789;SDS011;37287;47.554;7.844;2023-12-07T05:34:42;40.28;;;20.67;;
50789;SDS011;37287;47.554;7.844;2023-12-07T05:37:08;41.75;;;21.38;;
50789;SDS011;37287;47.554;7.844;2023-12-07T05:39:35;39.67;;;20.55;;
50789;SDS011;37287;47.554;7.844;2023-12-07T05:42:02;40.92;;;20.13;;
50789;SDS011;37287;47.554;7.844;2023-12-07T05:44:30;40.17;;;20.42;;
50789;SDS011;37287;47.554;7.844;2023-12-07T05:46:57;37.33;;;19.48;;
50789;SDS011;37287;47.554;7.844;2023-12-07T05:49:24;39.65;;;21.63;;
50789;SDS011;37287;47.554;7.844;2023-12-07T05:51:51;38.88;;;19.45;;
50789;SDS011;37287;47.554;7.844;2023-12-07T05:54:19;32.42;;;18.08;;
50789;SDS011;37287;47.554;7.844;2023-12-07T05:56:48;38.72;;;19.25;;
50789;SDS011;37287;47.554;7.844;2023-12-07T05:59:16;37.95;;;20.83;;
50789;SDS011;37287;47.554;7.844;2023-12-07T06:01:43;39.35;;;20.25;;
50789;SDS011;37287;47.554;7.844;2023-12-07T06:04:10;36.67;;;19.80;;
50789;SDS011;37287;47.554;7.844;2023-12-07T06:06:39;34.42;;;17.88;;
50789;SDS011;37287;47.554;7.844;2023-12-07T06:09:06;35.53;;;18.95;;
50789;SDS011;37287;47.554;7.844;2023-12-07T06:11:34;34.65;;;19.02;;
50789;SDS011;37287;47.554;7.844;2023-12-07T06:14:01;34.40;;;18.55;;
50789;SDS011;37287;47.554;7.844;2023-12-07T06:16:29;34.03;;;18.08;;
50789;SDS011;37287;47.554;7.844;2023-12-07T06:18:56;38.08;;;21.17;;
50789;SDS011;37287;47.554;7.844;2023-12-07T06:21:23;37.00;;;20.45;;
50789;SDS011;37287;47.554;7.844;2023-12-07T06:23:51;31.73;;;18.75;;
50789;SDS011;37287;47.554;7.844;2023-12-07T06:26:19;36.60;;;19.85;;
50789;SDS011;37287;47.554;7.844;2023-12-07T06:28:46;30.25;;;17.63;;
50789;SDS011;37287;47.554;7.844;2023-12-07T06:31:13;32.65;;;19.40;;
50789;SDS011;37287;47.554;7.844;2023-12-07T06:33:42;29.65;;;16.88;;
50789;SDS011;37287;47.554;7.844;2023-12-07T06:36:09;29.17;;;17.77;;
50789;SDS011;37287;47.554;7.844;2023-12-07T06:38:36;29.60;;;17.98;;
50789;SDS011;37287;47.554;7.844;2023-12-07T06:41:03;27.88;;;17.13;;
50789;SDS011;37287;47.554;7.844;2023-12-07T06:43:30;30.40;;;17.38;;
50789;SDS011;37287;47.554;7.844;2023-12-07T06:45:56;29.50;;;18.73;;
50789;SDS011;37287;47.554;7.844;2023-12-07T06:48:23;31.90;;;18.33;;
50789;SDS011;37287;47.554;7.844;2023-12-07T06:50:50;29.33;;;17.80;;
50789;SDS011;37287;47.554;7.844;2023-12-07T06:53:17;30.05;;;17.83;;
50789;SDS011;37287;47.554;7.844;2023-12-07T06:55:45;29.52;;;18.38;;
50789;SDS011;37287;47.554;7.844;2023-12-07T06:58:11;27.98;;;17.50;;
50789;SDS011;37287;47.554;7.844;2023-12-07T07:00:39;25.13;;;16.00;;
50789;SDS011;37287;47.554;7.844;2023-12-07T07:03:06;26.55;;;16.63;;
50789;SDS011;37287;47.554;7.844;2023-12-07T07:05:33;27.55;;;17.40;;
50789;SDS011;37287;47.554;7.844;2023-12-07T07:07:59;23.83;;;15.25;;
50789;SDS011;37287;47.554;7.844;2023-12-07T07:10:26;24.30;;;14.98;;
50789;SDS011;37287;47.554;7.844;2023-12-07T07:12:53;23.83;;;15.02;;
50789;SDS011;37287;47.554;7.844;2023-12-07T07:15:20;24.27;;;15.77;;
50789;SDS011;37287;47.554;7.844;2023-12-07T07:17:47;22.33;;;15.07;;
50789;SDS011;37287;47.554;7.844;2023-12-07T07:20:13;23.58;;;15.85;;
50789;SDS011;37287;47.554;7.844;2023-12-07T07:22:40;22.77;;;15.25;;
50789;SDS011;37287;47.554;7.844;2023-12-07T07:25:08;22.75;;;15.32;;
50789;SDS011;37287;47.554;7.844;2023-12-07T07:27:35;23.15;;;15.38;;
50789;SDS011;37287;47.554;7.844;2023-12-07T07:30:02;20.73;;;14.55;;
50789;SDS011;37287;47.554;7.844;2023-12-07T07:32:31;20.88;;;14.07;;
50789;SDS011;37287;47.554;7.844;2023-12-07T07:34:58;20.70;;;14.20;;
50789;SDS011;37287;47.554;7.844;2023-12-07T07:37:25;24.40;;;15.55;;
50789;SDS011;37287;47.554;7.844;2023-12-07T07:39:53;22.27;;;15.48;;
50789;SDS011;37287;47.554;7.844;2023-12-07T07:42:20;21.25;;;14.80;;
50789;SDS011;37287;47.554;7.844;2023-12-07T07:44:47;21.35;;;15.38;;
50789;SDS011;37287;47.554;7.844;2023-12-07T07:47:13;25.15;;;15.88;;
50789;SDS011;37287;47.554;7.844;2023-12-07T07:49:40;22.83;;;15.68;;
50789;SDS011;37287;47.554;7.844;2023-12-07T07:52:07;20.35;;;14.13;;
50789;SDS011;37287;47.554;7.844;2023-12-07T07:54:35;21.92;;;15.50;;
50789;SDS011;37287;47.554;7.844;2023-12-07T07:57:03;17.63;;;13.38;;
50789;SDS011;37287;47.554;7.844;2023-12-07T07:59:30;19.15;;;12.88;;
50789;SDS011;37287;47.554;7.844;2023-12-07T08:01:57;19.00;;;13.55;;
50789;SDS011;37287;47.554;7.844;2023-12-07T08:04:24;20.25;;;14.90;;
50789;SDS011;37287;47.554;7.844;2023-12-07T08:06:51;19.80;;;12.85;;
50789;SDS011;37287;47.554;7.844;2023-12-07T08:09:18;17.67;;;12.73;;
50789;SDS011;37287;47.554;7.844;2023-12-07T08:11:45;17.27;;;12.48;;
50789;SDS011;37287;47.554;7.844;2023-12-07T08:14:12;16.33;;;12.20;;
50789;SDS011;37287;47.554;7.844;2023-12-07T08:16:42;16.77;;;12.30;;
50789;SDS011;37287;47.554;7.844;2023-12-07T08:19:10;17.50;;;12.52;;
50789;SDS011;37287;47.554;7.844;2023-12-07T08:21:37;15.00;;;11.77;;
50789;SDS011;37287;47.554;7.844;2023-12-07T08:24:04;18.95;;;13.85;;
50789;SDS011;37287;47.554;7.844;2023-12-07T08:26:32;15.35;;;12.02;;
50789;SDS011;37287;47.554;7.844;2023-12-07T08:28:59;14.98;;;11.68;;
50789;SDS011;37287;47.554;7.844;2023-12-07T08:31:25;13.63;;;10.85;;
50789;SDS011;37287;47.554;7.844;2023-12-07T08:33:52;15.27;;;11.60;;
50789;SDS011;37287;47.554;7.844;2023-12-07T08:36:19;16.67;;;12.38;;
50789;SDS011;37287;47.554;7.844;2023-12-07T08:38:47;16.65;;;11.68;;
50789;SDS011;37287;47.554;7.844;2023-12-07T08:41:14;16.08;;;12.30;;
50789;SDS011;37287;47.554;7.844;2023-12-07T08:43:41;14.70;;;11.43;;
50789;SDS011;37287;47.554;7.844;2023-12-07T08:46:08;15.38;;;11.57;;
50789;SDS011;37287;47.554;7.844;2023-12-07T08:48:36;17.33;;;12.32;;
50789;SDS011;37287;47.554;7.844;2023-12-07T08:51:08;16.63;;;12.48;;
50789;SDS011;37287;47.554;7.844;2023-12-07T08:53:35;16.48;;;12.30;;
50789;SDS011;37287;47.554;7.844;2023-12-07T08:56:02;16.67;;;12.70;;
50789;SDS011;37287;47.554;7.844;2023-12-07T08:58:29;19.70;;;13.00;;
50789;SDS011;37287;47.554;7.844;2023-12-07T09:00:56;18.40;;;12.55;;
50789;SDS011;37287;47.554;7.844;2023-12-07T09:03:23;20.52;;;12.73;;
50789;SDS011;37287;47.554;7.844;2023-12-07T09:05:59;17.08;;;12.18;;
50789;SDS011;37287;47.554;7.844;2023-12-07T09:08:27;16.90;;;12.60;;
50789;SDS011;37287;47.554;7.844;2023-12-07T09:10:54;14.60;;;10.85;;
50789;SDS011;37287;47.554;7.844;2023-12-07T09:13:20;16.25;;;12.35;;
50789;SDS011;37287;47.554;7.844;2023-12-07T09:15:47;15.88;;;11.55;;
50789;SDS011;37287;47.554;7.844;2023-12-07T09:18:14;16.40;;;11.77;;
50789;SDS011;37287;47.554;7.844;2023-12-07T09:20:42;14.68;;;11.55;;
50789;SDS011;37287;47.554;7.844;2023-12-07T09:23:15;16.48;;;12.40;;
50789;SDS011;37287;47.554;7.844;2023-12-07T09:25:43;16.38;;;11.55;;
50789;SDS011;37287;47.554;7.844;2023-12-07T09:28:10;17.77;;;12.73;;
50789;SDS011;37287;47.554;7.844;2023-12-07T09:30:37;18.70;;;13.05;;
50789;SDS011;37287;47.554;7.844;2023-12-07T09:33:04;15.68;;;12.43;;
50789;SDS011;37287;47.554;7.844;2023-12-07T09:35:32;14.85;;;11.93;;
50789;SDS011;37287;47.554;7.844;2023-12-07T09:38:01;16.52;;;12.43;;
50789;SDS011;37287;47.554;7.844;2023-12-07T09:40:27;17.05;;;13.10;;
50789;SDS011;37287;47.554;7.844;2023-12-07T09:42:55;16.42;;;11.93;;
50789;SDS011;37287;47.554;7.844;2023-12-07T09:45:22;15.77;;;12.27;;
50789;SDS011;37287;47.554;7.844;2023-12-07T09:47:51;17.17;;;11.80;;
50789;SDS011;37287;47.554;7.844;2023-12-07T09:50:20;17.33;;;11.70;;
50789;SDS011;37287;47.554;7.844;2023-12-07T09:52:48;16.08;;;12.73;;
50789;SDS011;37287;47.554;7.844;2023-12-07T09:55:29;15.75;;;11.75;;
50789;SDS011;37287;47.554;7.844;2023-12-07T09:57:57;15.70;;;10.98;;
50789;SDS011;37287;47.554;7.844;2023-12-07T10:00:24;21.98;;;12.27;;
50789;SDS011;37287;47.554;7.844;2023-12-07T10:02:52;17.15;;;13.00;;
50789;SDS011;37287;47.554;7.844;2023-12-07T10:05:20;18.63;;;11.88;;
50789;SDS011;37287;47.554;7.844;2023-12-07T10:07:48;17.92;;;13.50;;
50789;SDS011;37287;47.554;7.844;2023-12-07T10:10:17;16.70;;;13.23;;
50789;SDS011;37287;47.554;7.844;2023-12-07T10:12:54;18.30;;;13.77;;
50789;SDS011;37287;47.554;7.844;2023-12-07T10:15:24;18.67;;;13.63;;
50789;SDS011;37287;47.554;7.844;2023-12-07T10:17:52;24.77;;;14.70;;
50789;SDS011;37287;47.554;7.844;2023-12-07T10:20:21;17.52;;;14.10;;
50789;SDS011;37287;47.554;7.844;2023-12-07T10:23:01;19.25;;;14.00;;
50789;SDS011;37287;47.554;7.844;2023-12-07T10:25:31;18.27;;;13.43;;
50789;SDS011;37287;47.554;7.844;2023-12-07T10:27:59;20.30;;;13.45;;
50789;SDS011;37287;47.554;7.844;2023-12-07T10:30:27;15.90;;;12.32;;
50789;SDS011;37287;47.554;7.844;2023-12-07T10:32:54;16.48;;;12.18;;
50789;SDS011;37287;47.554;7.844;2023-12-07T10:35:20;19.30;;;13.80;;
50789;SDS011;37287;47.554;7.844;2023-12-07T10:37:47;15.43;;;12.98;;
50789;SDS011;37287;47.554;7.844;2023-12-07T10:40:15;16.85;;;12.73;;
50789;SDS011;37287;47.554;7.844;2023-12-07T10:42:42;15.00;;;12.68;;
50789;SDS011;37287;47.554;7.844;2023-12-07T10:45:14;14.50;;;10.82;;
50789;SDS011;37287;47.554;7.844;2023-12-07T10:47:43;14.85;;;11.30;;
50789;SDS011;37287;47.554;7.844;2023-12-07T10:50:10;12.30;;;9.90;;
50789;SDS011;37287;47.554;7.844;2023-12-07T10:52:48;14.90;;;10.77;;
50789;SDS011;37287;47.554;7.844;2023-12-07T10:55:22;14.23;;;11.40;;
50789;SDS011;37287;47.554;7.844;2023-12-07T10:57:55;14.20;;;11.40;;
50789;SDS011;37287;47.554;7.844;2023-12-07T11:00:22;15.55;;;11.50;;
50789;SDS011;37287;47.554;7.844;2023-12-07T11:03:06;16.08;;;11.70;;
50789;SDS011;37287;47.554;7.844;2023-12-07T11:05:33;14.48;;;11.80;;
50789;SDS011;37287;47.554;7.844;2023-12-07T11:08:02;14.10;;;11.27;;
50789;SDS011;37287;47.554;7.844;2023-12-07T11:10:36;17.90;;;11.85;;
50789;SDS011;37287;47.554;7.844;2023-12-07T11:13:14;14.35;;;10.57;;
50789;SDS011;37287;47.554;7.844;2023-12-07T11:15:45;15.02;;;11.75;;
50789;SDS011;37287;47.554;7.844;2023-12-07T11:18:12;16.33;;;12.25;;
50789;SDS011;37287;47.554;7.844;2023-12-07T11:20:41;14.73;;;10.60;;
50789;SDS011;37287;47.554;7.844;2023-12-07T11:23:10;16.80;;;10.80;;
50789;SDS011;37287;47.554;7.844;2023-12-07T11:25:37;15.15;;;10.23;;
50789;SDS011;37287;47.554;7.844;2023-12-07T11:28:05;14.25;;;10.95;;
50789;SDS011;37287;47.554;7.844;2023-12-07T11:30:35;15.48;;;10.65;;
50789;SDS011;37287;47.554;7.844;2023-12-07T11:33:06;14.75;;;11.05;;
50789;SDS011;37287;47.554;7.844;2023-12-07T11:35:33;13.88;;;10.68;;
50789;SDS011;37287;47.554;7.844;2023-12-07T11:38:01;14.90;;;11.00;;
50789;SDS011;37287;47.554;7.844;2023-12-07T11:40:30;14.80;;;11.10;;
50789;SDS011;37287;47.554;7.844;2023-12-07T11:42:59;16.25;;;12.10;;
50789;SDS011;37287;47.554;7.844;2023-12-07T11:45:36;16.25;;;10.98;;
50789;SDS011;37287;47.554;7.844;2023-12-07T11:48:07;14.18;;;10.73;;
50789;SDS011;37287;47.554;7.844;2023-12-07T11:51:00;14.02;;;10.98;;
50789;SDS011;37287;47.554;7.844;2023-12-07T11:53:31;14.10;;;10.90;;
50789;SDS011;37287;47.554;7.844;2023-12-07T11:56:00;15.10;;;11.32;;
50789;SDS011;37287;47.554;7.844;2023-12-07T11:58:29;13.85;;;10.50;;
50789;SDS011;37287;47.554;7.844;2023-12-07T12:01:01;15.07;;;11.10;;
50789;SDS011;37287;47.554;7.844;2023-12-07T12:03:29;13.43;;;10.55;;
50789;SDS011;37287;47.554;7.844;2023-12-07T12:05:58;15.35;;;10.95;;
50789;SDS011;37287;47.554;7.844;2023-12-07T12:08:25;16.88;;;10.18;;
50789;SDS011;37287;47.554;7.844;2023-12-07T12:10:54;16.13;;;11.52;;
50789;SDS011;37287;47.554;7.844;2023-12-07T12:13:27;18.25;;;10.63;;
50789;SDS011;37287;47.554;7.844;2023-12-07T12:16:00;12.52;;;10.43;;
50789;SDS011;37287;47.554;7.844;2023-12-07T12:18:32;14.63;;;10.88;;
50789;SDS011;37287;47.554;7.844;2023-12-07T12:21:00;14.40;;;10.05;;
50789;SDS011;37287;47.554;7.844;2023-12-07T12:23:27;14.77;;;10.40;;
50789;SDS011;37287;47.554;7.844;2023-12-07T12:25:55;11.07;;;8.10;;
50789;SDS011;37287;47.554;7.844;2023-12-07T12:28:23;9.40;;;8.18;;
50789;SDS011;37287;47.554;7.844;2023-12-07T12:30:51;13.00;;;8.20;;
50789;SDS011;37287;47.554;7.844;2023-12-07T12:33:18;10.98;;;8.63;;
50789;SDS011;37287;47.554;7.844;2023-12-07T12:35:45;13.05;;;8.85;;
50789;SDS011;37287;47.554;7.844;2023-12-07T12:38:13;15.60;;;10.23;;
50789;SDS011;37287;47.554;7.844;2023-12-07T12:40:53;13.68;;;10.13;;
50789;SDS011;37287;47.554;7.844;2023-12-07T12:43:20;14.13;;;11.15;;
50789;SDS011;37287;47.554;7.844;2023-12-07T12:45:49;14.18;;;11.60;;
50789;SDS011;37287;47.554;7.844;2023-12-07T12:48:31;12.93;;;10.27;;
50789;SDS011;37287;47.554;7.844;2023-12-07T12:50:59;12.77;;;10.05;;
50789;SDS011;37287;47.554;7.844;2023-12-07T12:53:33;13.88;;;10.60;;
50789;SDS011;37287;47.554;7.844;2023-12-07T12:56:00;12.73;;;10.10;;
50789;SDS011;37287;47.554;7.844;2023-12-07T12:58:27;14.95;;;11.00;;
50789;SDS011;37287;47.554;7.844;2023-12-07T13:00:54;12.60;;;10.57;;
50789;SDS011;37287;47.554;7.844;2023-12-07T13:03:21;12.25;;;9.93;;
50789;SDS011;37287;47.554;7.844;2023-12-07T13:05:48;11.55;;;9.75;;
50789;SDS011;37287;47.554;7.844;2023-12-07T13:08:15;18.38;;;10.32;;
50789;SDS011;37287;47.554;7.844;2023-12-07T13:10:42;12.60;;;9.65;;
50789;SDS011;37287;47.554;7.844;2023-12-07T13:13:09;13.32;;;9.77;;
50789;SDS011;37287;47.554;7.844;2023-12-07T13:15:36;14.70;;;9.65;;
50789;SDS011;37287;47.554;7.844;2023-12-07T13:18:04;11.63;;;9.85;;
50789;SDS011;37287;47.554;7.844;2023-12-07T13:20:33;12.80;;;9.73;;
50789;SDS011;37287;47.554;7.844;2023-12-07T13:25:47;15.55;;;10.10;;
50789;SDS011;37287;47.554;7.844;2023-12-07T13:28:14;11.88;;;9.27;;
50789;SDS011;37287;47.554;7.844;2023-12-07T13:30:41;20.38;;;10.52;;
50789;SDS011;37287;47.554;7.844;2023-12-07T13:33:08;12.73;;;10.02;;
50789;SDS011;37287;47.554;7.844;2023-12-07T13:35:52;13.98;;;10.05;;
50789;SDS011;37287;47.554;7.844;2023-12-07T13:38:22;11.35;;;9.45;;
50789;SDS011;37287;47.554;7.844;2023-12-07T13:40:50;15.88;;;11.07;;
50789;SDS011;37287;47.554;7.844;2023-12-07T13:43:16;15.57;;;10.50;;
50789;SDS011;37287;47.554;7.844;2023-12-07T13:45:44;13.90;;;11.40;;
50789;SDS011;37287;47.554;7.844;2023-12-07T13:48:11;14.10;;;10.65;;
50789;SDS011;37287;47.554;7.844;2023-12-07T13:50:40;13.32;;;10.35;;
50789;SDS011;37287;47.554;7.844;2023-12-07T13:53:07;11.82;;;9.63;;
50789;SDS011;37287;47.554;7.844;2023-12-07T13:55:40;11.38;;;9.82;;
50789;SDS011;37287;47.554;7.844;2023-12-07T13:58:08;11.98;;;9.98;;
50789;SDS011;37287;47.554;7.844;2023-12-07T14:00:39;12.07;;;10.27;;
50789;SDS011;37287;47.554;7.844;2023-12-07T14:03:06;9.70;;;8.55;;
50789;SDS011;37287;47.554;7.844;2023-12-07T14:05:33;11.23;;;9.10;;
50789;SDS011;37287;47.554;7.844;2023-12-07T14:08:00;11.68;;;8.63;;
50789;SDS011;37287;47.554;7.844;2023-12-07T14:10:26;10.02;;;8.77;;
50789;SDS011;37287;47.554;7.844;2023-12-07T14:12:57;10.32;;;8.75;;
50789;SDS011;37287;47.554;7.844;2023-12-07T14:15:25;11.90;;;8.98;;
50789;SDS011;37287;47.554;7.844;2023-12-07T14:18:07;10.52;;;8.88;;
50789;SDS011;37287;47.554;7.844;2023-12-07T14:20:35;11.23;;;9.48;;
50789;SDS011;37287;47.554;7.844;2023-12-07T14:23:21;11.60;;;9.20;;
50789;SDS011;37287;47.554;7.844;2023-12-07T14:25:49;10.95;;;9.43;;
50789;SDS011;37287;47.554;7.844;2023-12-07T14:28:18;11.18;;;9.50;;
50789;SDS011;37287;47.554;7.844;2023-12-07T14:30:45;13.27;;;10.60;;
50789;SDS011;37287;47.554;7.844;2023-12-07T14:33:12;13.13;;;10.13;;
50789;SDS011;37287;47.554;7.844;2023-12-07T14:35:38;14.43;;;11.18;;
50789;SDS011;37287;47.554;7.844;2023-12-07T14:38:05;15.43;;;10.85;;